sensor_id;sensor_type;location;lat;lon;timestamp;P1;durP1;ratioP1;P2;durP2;ratioP2
51636;SDS011;37713;53.254;6.460;2023-06-14T00:00:51;7.25;;;2.03;;
51636;SDS011;37713;53.254;6.460;2023-06-14T00:03:18;7.00;;;2.10;;
51636;SDS011;37713;53.254;6.460;2023-06-14T00:05:47;8.52;;;1.95;;
51636;SDS011;37713;53.254;6.460;2023-06-14T00:08:13;6.38;;;2.40;;
51636;SDS011;37713;53.254;6.460;2023-06-14T00:10:39;5.47;;;2.05;;
51636;SDS011;37713;53.254;6.460;2023-06-14T00:13:07;5.15;;;2.17;;
51636;SDS011;37713;53.254;6.460;2023-06-14T00:15:34;6.55;;;2.10;;
51636;SDS011;37713;53.254;6.460;2023-06-14T00:18:00;6.25;;;1.75;;
51636;SDS011;37713;53.254;6.460;2023-06-14T00:20:27;4.30;;;1.85;;
51636;SDS011;37713;53.254;6.460;2023-06-14T00:22:54;5.65;;;1.90;;
51636;SDS011;37713;53.254;6.460;2023-06-14T00:25:22;6.97;;;2.00;;
51636;SDS011;37713;53.254;6.460;2023-06-14T00:30:16;4.45;;;1.70;;
51636;SDS011;37713;53.254;6.460;2023-06-14T00:32:42;6.90;;;1.90;;
51636;SDS011;37713;53.254;6.460;2023-06-14T00:35:08;6.32;;;2.00;;
51636;SDS011;37713;53.254;6.460;2023-06-14T00:37:35;4.78;;;1.80;;
51636;SDS011;37713;53.254;6.460;2023-06-14T00:40:00;6.78;;;1.70;;
51636;SDS011;37713;53.254;6.460;2023-06-14T00:42:27;4.50;;;1.58;;
51636;SDS011;37713;53.254;6.460;2023-06-14T00:44:54;3.97;;;1.63;;
51636;SDS011;37713;53.254;6.460;2023-06-14T00:47:20;7.35;;;1.98;;
51636;SDS011;37713;53.254;6.460;2023-06-14T00:49:46;7.55;;;1.73;;
51636;SDS011;37713;53.254;6.460;2023-06-14T00:52:16;7.07;;;1.80;;
51636;SDS011;37713;53.254;6.460;2023-06-14T00:57:09;6.15;;;2.03;;
51636;SDS011;37713;53.254;6.460;2023-06-14T00:59:42;7.32;;;1.85;;
51636;SDS011;37713;53.254;6.460;2023-06-14T01:02:09;6.28;;;1.90;;
51636;SDS011;37713;53.254;6.460;2023-06-14T01:04:35;4.72;;;1.60;;
51636;SDS011;37713;53.254;6.460;2023-06-14T01:07:05;4.38;;;1.80;;
51636;SDS011;37713;53.254;6.460;2023-06-14T01:09:43;5.65;;;1.80;;
51636;SDS011;37713;53.254;6.460;2023-06-14T01:14:46;4.53;;;1.80;;
51636;SDS011;37713;53.254;6.460;2023-06-14T01:17:13;4.70;;;1.65;;
51636;SDS011;37713;53.254;6.460;2023-06-14T01:19:42;4.43;;;1.67;;
51636;SDS011;37713;53.254;6.460;2023-06-14T01:22:09;5.25;;;1.67;;
51636;SDS011;37713;53.254;6.460;2023-06-14T01:24:35;4.25;;;1.70;;
51636;SDS011;37713;53.254;6.460;2023-06-14T01:27:02;5.47;;;1.90;;
51636;SDS011;37713;53.254;6.460;2023-06-14T01:29:28;4.65;;;1.90;;
51636;SDS011;37713;53.254;6.460;2023-06-14T01:31:58;7.32;;;1.77;;
51636;SDS011;37713;53.254;6.460;2023-06-14T01:34:25;4.07;;;1.73;;
51636;SDS011;37713;53.254;6.460;2023-06-14T01:36:51;7.13;;;1.60;;
51636;SDS011;37713;53.254;6.460;2023-06-14T01:39:20;5.82;;;1.55;;
51636;SDS011;37713;53.254;6.460;2023-06-14T01:41:47;4.30;;;1.70;;
51636;SDS011;37713;53.254;6.460;2023-06-14T01:44:14;7.90;;;1.88;;
51636;SDS011;37713;53.254;6.460;2023-06-14T01:46:42;4.63;;;1.60;;
51636;SDS011;37713;53.254;6.460;2023-06-14T01:49:09;4.30;;;1.75;;
51636;SDS011;37713;53.254;6.460;2023-06-14T01:51:35;5.95;;;1.83;;
51636;SDS011;37713;53.254;6.460;2023-06-14T01:54:01;4.65;;;1.88;;
51636;SDS011;37713;53.254;6.460;2023-06-14T01:56:27;3.83;;;1.65;;
51636;SDS011;37713;53.254;6.460;2023-06-14T01:58:53;4.30;;;1.77;;
51636;SDS011;37713;53.254;6.460;2023-06-14T02:01:19;5.93;;;2.00;;
51636;SDS011;37713;53.254;6.460;2023-06-14T02:03:46;5.03;;;1.77;;
51636;SDS011;37713;53.254;6.460;2023-06-14T02:06:14;6.95;;;2.10;;
51636;SDS011;37713;53.254;6.460;2023-06-14T02:08:41;6.57;;;2.28;;
51636;SDS011;37713;53.254;6.460;2023-06-14T02:11:07;5.57;;;1.90;;
51636;SDS011;37713;53.254;6.460;2023-06-14T02:13:33;5.05;;;2.00;;
51636;SDS011;37713;53.254;6.460;2023-06-14T02:16:00;4.60;;;1.80;;
51636;SDS011;37713;53.254;6.460;2023-06-14T02:18:26;6.82;;;2.00;;
51636;SDS011;37713;53.254;6.460;2023-06-14T02:20:52;6.25;;;2.00;;
51636;SDS011;37713;53.254;6.460;2023-06-14T02:23:18;7.10;;;1.85;;
51636;SDS011;37713;53.254;6.460;2023-06-14T02:25:44;4.90;;;2.13;;
51636;SDS011;37713;53.254;6.460;2023-06-14T02:28:11;4.40;;;2.30;;
51636;SDS011;37713;53.254;6.460;2023-06-14T02:30:37;6.65;;;2.15;;
51636;SDS011;37713;53.254;6.460;2023-06-14T02:33:02;5.35;;;2.10;;
51636;SDS011;37713;53.254;6.460;2023-06-14T02:35:30;5.63;;;2.25;;
51636;SDS011;37713;53.254;6.460;2023-06-14T02:37:55;5.72;;;2.30;;
51636;SDS011;37713;53.254;6.460;2023-06-14T02:40:22;5.20;;;2.20;;
51636;SDS011;37713;53.254;6.460;2023-06-14T02:42:48;5.05;;;1.90;;
51636;SDS011;37713;53.254;6.460;2023-06-14T02:45:14;7.93;;;2.15;;
51636;SDS011;37713;53.254;6.460;2023-06-14T02:47:40;5.07;;;2.10;;
51636;SDS011;37713;53.254;6.460;2023-06-14T02:50:06;5.72;;;2.33;;
51636;SDS011;37713;53.254;6.460;2023-06-14T02:52:33;6.43;;;2.42;;
51636;SDS011;37713;53.254;6.460;2023-06-14T02:54:59;5.95;;;2.80;;
51636;SDS011;37713;53.254;6.460;2023-06-14T02:57:25;6.38;;;2.63;;
51636;SDS011;37713;53.254;6.460;2023-06-14T02:59:51;5.57;;;2.58;;
51636;SDS011;37713;53.254;6.460;2023-06-14T03:02:17;10.13;;;2.80;;
51636;SDS011;37713;53.254;6.460;2023-06-14T03:04:43;7.72;;;2.60;;
51636;SDS011;37713;53.254;6.460;2023-06-14T03:07:11;6.35;;;2.50;;
51636;SDS011;37713;53.254;6.460;2023-06-14T03:09:38;6.13;;;2.50;;
51636;SDS011;37713;53.254;6.460;2023-06-14T03:12:05;6.78;;;2.70;;
51636;SDS011;37713;53.254;6.460;2023-06-14T03:14:32;5.38;;;2.65;;
51636;SDS011;37713;53.254;6.460;2023-06-14T03:16:58;6.93;;;2.63;;
51636;SDS011;37713;53.254;6.460;2023-06-14T03:19:25;7.20;;;3.00;;
51636;SDS011;37713;53.254;6.460;2023-06-14T03:21:51;5.70;;;2.67;;
51636;SDS011;37713;53.254;6.460;2023-06-14T03:24:18;7.60;;;2.70;;
51636;SDS011;37713;53.254;6.460;2023-06-14T03:26:45;5.72;;;2.58;;
51636;SDS011;37713;53.254;6.460;2023-06-14T03:29:11;7.78;;;2.83;;
51636;SDS011;37713;53.254;6.460;2023-06-14T03:31:41;7.72;;;2.60;;
51636;SDS011;37713;53.254;6.460;2023-06-14T03:34:24;5.25;;;2.40;;
51636;SDS011;37713;53.254;6.460;2023-06-14T03:36:50;8.57;;;2.60;;
51636;SDS011;37713;53.254;6.460;2023-06-14T03:39:16;7.75;;;2.53;;
51636;SDS011;37713;53.254;6.460;2023-06-14T03:41:42;5.88;;;2.60;;
51636;SDS011;37713;53.254;6.460;2023-06-14T03:44:08;10.82;;;2.70;;
51636;SDS011;37713;53.254;6.460;2023-06-14T03:46:34;5.63;;;2.75;;
51636;SDS011;37713;53.254;6.460;2023-06-14T03:48:59;6.10;;;2.92;;
51636;SDS011;37713;53.254;6.460;2023-06-14T03:51:25;8.20;;;2.85;;
51636;SDS011;37713;53.254;6.460;2023-06-14T03:53:51;6.97;;;2.78;;
51636;SDS011;37713;53.254;6.460;2023-06-14T03:56:17;8.35;;;3.63;;
51636;SDS011;37713;53.254;6.460;2023-06-14T03:58:43;9.85;;;4.55;;
51636;SDS011;37713;53.254;6.460;2023-06-14T04:01:08;6.70;;;3.40;;
51636;SDS011;37713;53.254;6.460;2023-06-14T04:03:34;9.55;;;4.75;;
51636;SDS011;37713;53.254;6.460;2023-06-14T04:06:00;9.20;;;3.90;;
51636;SDS011;37713;53.254;6.460;2023-06-14T04:08:26;10.85;;;3.90;;
51636;SDS011;37713;53.254;6.460;2023-06-14T04:10:52;6.57;;;3.20;;
51636;SDS011;37713;53.254;6.460;2023-06-14T04:13:17;6.35;;;2.95;;
51636;SDS011;37713;53.254;6.460;2023-06-14T04:15:43;8.02;;;3.58;;
51636;SDS011;37713;53.254;6.460;2023-06-14T04:18:10;11.65;;;5.15;;
51636;SDS011;37713;53.254;6.460;2023-06-14T04:20:38;7.10;;;3.55;;
51636;SDS011;37713;53.254;6.460;2023-06-14T04:23:14;9.88;;;3.40;;
51636;SDS011;37713;53.254;6.460;2023-06-14T04:25:43;6.50;;;2.95;;
51636;SDS011;37713;53.254;6.460;2023-06-14T04:28:12;6.07;;;2.80;;
51636;SDS011;37713;53.254;6.460;2023-06-14T04:30:41;6.97;;;2.90;;
51636;SDS011;37713;53.254;6.460;2023-06-14T04:33:07;6.38;;;3.20;;
51636;SDS011;37713;53.254;6.460;2023-06-14T04:35:35;6.93;;;2.88;;
51636;SDS011;37713;53.254;6.460;2023-06-14T04:38:02;9.77;;;3.65;;
51636;SDS011;37713;53.254;6.460;2023-06-14T04:40:35;7.30;;;3.33;;
51636;SDS011;37713;53.254;6.460;2023-06-14T04:43:08;8.38;;;3.35;;
51636;SDS011;37713;53.254;6.460;2023-06-14T04:45:37;7.85;;;3.63;;
51636;SDS011;37713;53.254;6.460;2023-06-14T04:48:05;9.95;;;3.65;;
51636;SDS011;37713;53.254;6.460;2023-06-14T04:50:31;7.10;;;3.33;;
51636;SDS011;37713;53.254;6.460;2023-06-14T04:52:58;6.30;;;3.17;;
51636;SDS011;37713;53.254;6.460;2023-06-14T04:55:24;6.95;;;3.33;;
51636;SDS011;37713;53.254;6.460;2023-06-14T04:57:51;6.50;;;3.10;;
51636;SDS011;37713;53.254;6.460;2023-06-14T05:00:19;9.77;;;3.30;;
51636;SDS011;37713;53.254;6.460;2023-06-14T05:02:48;11.15;;;3.50;;
51636;SDS011;37713;53.254;6.460;2023-06-14T05:05:16;7.72;;;3.40;;
51636;SDS011;37713;53.254;6.460;2023-06-14T05:07:42;7.15;;;3.47;;
51636;SDS011;37713;53.254;6.460;2023-06-14T05:10:08;12.68;;;3.58;;
51636;SDS011;37713;53.254;6.460;2023-06-14T05:12:39;7.93;;;3.42;;
51636;SDS011;37713;53.254;6.460;2023-06-14T05:15:04;7.63;;;3.58;;
51636;SDS011;37713;53.254;6.460;2023-06-14T05:17:31;9.30;;;4.20;;
51636;SDS011;37713;53.254;6.460;2023-06-14T05:19:56;10.18;;;3.80;;
51636;SDS011;37713;53.254;6.460;2023-06-14T05:22:22;10.65;;;3.35;;
51636;SDS011;37713;53.254;6.460;2023-06-14T05:24:48;9.25;;;3.30;;
51636;SDS011;37713;53.254;6.460;2023-06-14T05:27:14;8.70;;;3.65;;
51636;SDS011;37713;53.254;6.460;2023-06-14T05:29:40;8.02;;;3.30;;
51636;SDS011;37713;53.254;6.460;2023-06-14T05:32:05;10.15;;;3.78;;
51636;SDS011;37713;53.254;6.460;2023-06-14T05:34:32;6.40;;;3.28;;
51636;SDS011;37713;53.254;6.460;2023-06-14T05:36:57;6.82;;;3.20;;
51636;SDS011;37713;53.254;6.460;2023-06-14T05:39:23;7.32;;;3.25;;
51636;SDS011;37713;53.254;6.460;2023-06-14T05:41:49;9.23;;;3.72;;
51636;SDS011;37713;53.254;6.460;2023-06-14T05:44:15;8.02;;;3.22;;
51636;SDS011;37713;53.254;6.460;2023-06-14T05:46:41;6.68;;;3.20;;
51636;SDS011;37713;53.254;6.460;2023-06-14T05:49:07;7.65;;;3.60;;
51636;SDS011;37713;53.254;6.460;2023-06-14T05:51:33;8.65;;;3.25;;
51636;SDS011;37713;53.254;6.460;2023-06-14T05:54:00;8.75;;;3.53;;
51636;SDS011;37713;53.254;6.460;2023-06-14T05:56:26;8.98;;;3.85;;
51636;SDS011;37713;53.254;6.460;2023-06-14T05:58:52;6.90;;;3.40;;
51636;SDS011;37713;53.254;6.460;2023-06-14T06:01:17;8.30;;;3.55;;
51636;SDS011;37713;53.254;6.460;2023-06-14T06:03:43;9.07;;;4.10;;
51636;SDS011;37713;53.254;6.460;2023-06-14T06:06:11;10.65;;;3.58;;
51636;SDS011;37713;53.254;6.460;2023-06-14T06:08:37;11.50;;;3.80;;
51636;SDS011;37713;53.254;6.460;2023-06-14T06:11:03;7.00;;;3.90;;
51636;SDS011;37713;53.254;6.460;2023-06-14T06:13:29;8.95;;;3.97;;
51636;SDS011;37713;53.254;6.460;2023-06-14T06:15:55;10.50;;;3.85;;
51636;SDS011;37713;53.254;6.460;2023-06-14T06:18:21;11.15;;;4.40;;
51636;SDS011;37713;53.254;6.460;2023-06-14T06:20:47;8.23;;;3.88;;
51636;SDS011;37713;53.254;6.460;2023-06-14T06:23:13;8.90;;;3.47;;
51636;SDS011;37713;53.254;6.460;2023-06-14T06:25:38;9.13;;;3.83;;
51636;SDS011;37713;53.254;6.460;2023-06-14T06:28:05;8.95;;;3.90;;
51636;SDS011;37713;53.254;6.460;2023-06-14T06:30:31;14.75;;;3.95;;
51636;SDS011;37713;53.254;6.460;2023-06-14T06:32:57;9.77;;;3.72;;
51636;SDS011;37713;53.254;6.460;2023-06-14T06:35:23;5.78;;;3.28;;
51636;SDS011;37713;53.254;6.460;2023-06-14T06:37:49;8.65;;;3.58;;
51636;SDS011;37713;53.254;6.460;2023-06-14T06:40:15;8.30;;;3.40;;
51636;SDS011;37713;53.254;6.460;2023-06-14T06:42:41;8.93;;;3.50;;
51636;SDS011;37713;53.254;6.460;2023-06-14T06:45:06;6.95;;;3.40;;
51636;SDS011;37713;53.254;6.460;2023-06-14T06:47:32;9.65;;;3.58;;
51636;SDS011;37713;53.254;6.460;2023-06-14T06:49:58;7.97;;;3.47;;
51636;SDS011;37713;53.254;6.460;2023-06-14T06:52:24;10.43;;;3.42;;
51636;SDS011;37713;53.254;6.460;2023-06-14T06:54:50;7.65;;;3.80;;
51636;SDS011;37713;53.254;6.460;2023-06-14T06:59:47;8.00;;;3.25;;
51636;SDS011;37713;53.254;6.460;2023-06-14T07:02:14;8.57;;;3.35;;
51636;SDS011;37713;53.254;6.460;2023-06-14T07:04:39;9.20;;;3.35;;
51636;SDS011;37713;53.254;6.460;2023-06-14T07:07:06;7.22;;;2.92;;
51636;SDS011;37713;53.254;6.460;2023-06-14T07:09:32;8.93;;;3.10;;
51636;SDS011;37713;53.254;6.460;2023-06-14T07:11:57;9.13;;;2.83;;
51636;SDS011;37713;53.254;6.460;2023-06-14T07:14:23;7.32;;;3.40;;
51636;SDS011;37713;53.254;6.460;2023-06-14T07:16:49;9.27;;;2.80;;
51636;SDS011;37713;53.254;6.460;2023-06-14T07:19:15;11.88;;;3.38;;
51636;SDS011;37713;53.254;6.460;2023-06-14T07:21:41;7.57;;;2.92;;
51636;SDS011;37713;53.254;6.460;2023-06-14T07:24:06;6.03;;;2.80;;
51636;SDS011;37713;53.254;6.460;2023-06-14T07:26:33;5.82;;;2.55;;
51636;SDS011;37713;53.254;6.460;2023-06-14T07:28:59;9.50;;;2.95;;
51636;SDS011;37713;53.254;6.460;2023-06-14T07:31:24;5.82;;;2.58;;
51636;SDS011;37713;53.254;6.460;2023-06-14T07:33:51;8.32;;;2.65;;
51636;SDS011;37713;53.254;6.460;2023-06-14T07:36:17;5.75;;;2.60;;
51636;SDS011;37713;53.254;6.460;2023-06-14T07:38:43;6.20;;;2.67;;
51636;SDS011;37713;53.254;6.460;2023-06-14T07:41:10;5.97;;;2.55;;
51636;SDS011;37713;53.254;6.460;2023-06-14T07:43:35;9.57;;;2.90;;
51636;SDS011;37713;53.254;6.460;2023-06-14T07:46:01;5.60;;;2.50;;
51636;SDS011;37713;53.254;6.460;2023-06-14T07:48:27;7.03;;;2.35;;
51636;SDS011;37713;53.254;6.460;2023-06-14T07:50:53;6.40;;;2.40;;
51636;SDS011;37713;53.254;6.460;2023-06-14T07:53:19;5.03;;;2.20;;
51636;SDS011;37713;53.254;6.460;2023-06-14T07:55:45;6.40;;;2.40;;
51636;SDS011;37713;53.254;6.460;2023-06-14T07:58:12;8.73;;;2.40;;
51636;SDS011;37713;53.254;6.460;2023-06-14T08:00:38;7.68;;;2.42;;
51636;SDS011;37713;53.254;6.460;2023-06-14T08:03:04;5.82;;;2.78;;
51636;SDS011;37713;53.254;6.460;2023-06-14T08:05:29;6.47;;;2.50;;
51636;SDS011;37713;53.254;6.460;2023-06-14T08:07:55;4.93;;;2.50;;
51636;SDS011;37713;53.254;6.460;2023-06-14T08:10:21;8.20;;;3.00;;
51636;SDS011;37713;53.254;6.460;2023-06-14T08:12:47;8.98;;;2.63;;
51636;SDS011;37713;53.254;6.460;2023-06-14T08:15:15;11.35;;;2.60;;
51636;SDS011;37713;53.254;6.460;2023-06-14T08:17:45;9.73;;;2.40;;
51636;SDS011;37713;53.254;6.460;2023-06-14T08:22:37;7.45;;;2.60;;
51636;SDS011;37713;53.254;6.460;2023-06-14T08:25:03;5.07;;;2.30;;
51636;SDS011;37713;53.254;6.460;2023-06-14T08:27:29;5.63;;;2.75;;
51636;SDS011;37713;53.254;6.460;2023-06-14T08:29:55;5.25;;;2.17;;
51636;SDS011;37713;53.254;6.460;2023-06-14T08:32:21;5.97;;;2.03;;
51636;SDS011;37713;53.254;6.460;2023-06-14T08:34:47;6.10;;;2.40;;
51636;SDS011;37713;53.254;6.460;2023-06-14T08:37:13;11.57;;;2.30;;
51636;SDS011;37713;53.254;6.460;2023-06-14T08:39:39;6.65;;;2.15;;
51636;SDS011;37713;53.254;6.460;2023-06-14T08:42:05;6.15;;;2.15;;
51636;SDS011;37713;53.254;6.460;2023-06-14T08:44:32;6.82;;;2.30;;
51636;SDS011;37713;53.254;6.460;2023-06-14T08:46:59;4.07;;;1.92;;
51636;SDS011;37713;53.254;6.460;2023-06-14T08:49:28;6.47;;;2.67;;
51636;SDS011;37713;53.254;6.460;2023-06-14T08:52:00;6.55;;;2.13;;
51636;SDS011;37713;53.254;6.460;2023-06-14T08:54:29;5.90;;;2.40;;
51636;SDS011;37713;53.254;6.460;2023-06-14T08:56:57;6.22;;;2.20;;
51636;SDS011;37713;53.254;6.460;2023-06-14T08:59:26;4.47;;;2.28;;
51636;SDS011;37713;53.254;6.460;2023-06-14T09:04:22;6.00;;;1.80;;
51636;SDS011;37713;53.254;6.460;2023-06-14T09:06:50;17.25;;;2.85;;
51636;SDS011;37713;53.254;6.460;2023-06-14T09:09:21;9.63;;;2.40;;
51636;SDS011;37713;53.254;6.460;2023-06-14T09:11:51;9.27;;;2.72;;
51636;SDS011;37713;53.254;6.460;2023-06-14T09:14:20;5.03;;;2.00;;
51636;SDS011;37713;53.254;6.460;2023-06-14T09:16:52;8.57;;;2.20;;
51636;SDS011;37713;53.254;6.460;2023-06-14T09:21:48;5.78;;;2.45;;
51636;SDS011;37713;53.254;6.460;2023-06-14T09:24:17;5.50;;;2.53;;
51636;SDS011;37713;53.254;6.460;2023-06-14T09:26:46;4.22;;;2.33;;
51636;SDS011;37713;53.254;6.460;2023-06-14T09:29:12;7.55;;;2.40;;
51636;SDS011;37713;53.254;6.460;2023-06-14T09:31:38;7.82;;;2.60;;
51636;SDS011;37713;53.254;6.460;2023-06-14T09:34:04;7.60;;;2.60;;
51636;SDS011;37713;53.254;6.460;2023-06-14T09:36:31;5.70;;;2.42;;
51636;SDS011;37713;53.254;6.460;2023-06-14T09:38:58;57.47;;;4.38;;
51636;SDS011;37713;53.254;6.460;2023-06-14T09:44:05;5.00;;;2.20;;
51636;SDS011;37713;53.254;6.460;2023-06-14T09:46:35;4.68;;;2.30;;
51636;SDS011;37713;53.254;6.460;2023-06-14T09:49:02;8.15;;;2.20;;
51636;SDS011;37713;53.254;6.460;2023-06-14T09:51:29;8.23;;;2.65;;
51636;SDS011;37713;53.254;6.460;2023-06-14T09:54:00;8.02;;;2.47;;
51636;SDS011;37713;53.254;6.460;2023-06-14T09:59:08;9.90;;;2.50;;
51636;SDS011;37713;53.254;6.460;2023-06-14T10:01:41;8.90;;;2.20;;
51636;SDS011;37713;53.254;6.460;2023-06-14T10:04:10;5.22;;;2.25;;
51636;SDS011;37713;53.254;6.460;2023-06-14T10:06:43;10.93;;;3.00;;
51636;SDS011;37713;53.254;6.460;2023-06-14T10:09:11;6.45;;;2.28;;
51636;SDS011;37713;53.254;6.460;2023-06-14T10:11:37;7.20;;;2.33;;
51636;SDS011;37713;53.254;6.460;2023-06-14T10:14:09;9.48;;;2.45;;
51636;SDS011;37713;53.254;6.460;2023-06-14T10:19:28;4.95;;;2.00;;
51636;SDS011;37713;53.254;6.460;2023-06-14T10:22:06;5.50;;;2.40;;
51636;SDS011;37713;53.254;6.460;2023-06-14T10:27:09;6.40;;;2.42;;
51636;SDS011;37713;53.254;6.460;2023-06-14T10:32:26;5.63;;;2.20;;
51636;SDS011;37713;53.254;6.460;2023-06-14T10:34:57;7.85;;;2.40;;
51636;SDS011;37713;53.254;6.460;2023-06-14T10:37:30;5.85;;;2.30;;
51636;SDS011;37713;53.254;6.460;2023-06-14T10:39:55;6.30;;;2.20;;
51636;SDS011;37713;53.254;6.460;2023-06-14T10:42:21;13.73;;;2.80;;
51636;SDS011;37713;53.254;6.460;2023-06-14T10:44:55;7.45;;;2.50;;
51636;SDS011;37713;53.254;6.460;2023-06-14T10:47:29;6.55;;;2.40;;
51636;SDS011;37713;53.254;6.460;2023-06-14T10:50:08;8.57;;;2.40;;
51636;SDS011;37713;53.254;6.460;2023-06-14T10:52:42;6.55;;;2.40;;
51636;SDS011;37713;53.254;6.460;2023-06-14T10:55:10;8.98;;;2.42;;
51636;SDS011;37713;53.254;6.460;2023-06-14T10:57:40;6.18;;;2.30;;
51636;SDS011;37713;53.254;6.460;2023-06-14T11:00:09;6.82;;;2.33;;
51636;SDS011;37713;53.254;6.460;2023-06-14T11:03:28;5.50;;;2.10;;
51636;SDS011;37713;53.254;6.460;2023-06-14T11:05:51;7.15;;;2.00;;
51636;SDS011;37713;53.254;6.460;2023-06-14T11:11:14;14.40;;;2.80;;
51636;SDS011;37713;53.254;6.460;2023-06-14T11:13:42;10.57;;;2.38;;
51636;SDS011;37713;53.254;6.460;2023-06-14T11:16:14;5.25;;;1.95;;
51636;SDS011;37713;53.254;6.460;2023-06-14T11:18:41;9.63;;;2.38;;
51636;SDS011;37713;53.254;6.460;2023-06-14T11:21:07;10.30;;;3.15;;
51636;SDS011;37713;53.254;6.460;2023-06-14T11:23:36;11.38;;;2.17;;
51636;SDS011;37713;53.254;6.460;2023-06-14T11:26:02;7.22;;;2.33;;
51636;SDS011;37713;53.254;6.460;2023-06-14T11:28:36;6.97;;;2.50;;
51636;SDS011;37713;53.254;6.460;2023-06-14T11:31:03;6.90;;;1.75;;
51636;SDS011;37713;53.254;6.460;2023-06-14T11:33:29;5.15;;;2.28;;
51636;SDS011;37713;53.254;6.460;2023-06-14T11:35:55;7.60;;;2.38;;
51636;SDS011;37713;53.254;6.460;2023-06-14T11:38:21;4.03;;;1.80;;
51636;SDS011;37713;53.254;6.460;2023-06-14T11:40:47;11.73;;;2.40;;
51636;SDS011;37713;53.254;6.460;2023-06-14T11:43:12;11.15;;;2.47;;
51636;SDS011;37713;53.254;6.460;2023-06-14T11:45:39;7.35;;;1.90;;
51636;SDS011;37713;53.254;6.460;2023-06-14T11:48:06;7.18;;;2.28;;
51636;SDS011;37713;53.254;6.460;2023-06-14T11:50:31;7.88;;;2.08;;
51636;SDS011;37713;53.254;6.460;2023-06-14T11:52:59;15.80;;;2.60;;
51636;SDS011;37713;53.254;6.460;2023-06-14T11:55:31;7.82;;;2.10;;
51636;SDS011;37713;53.254;6.460;2023-06-14T11:58:01;4.88;;;1.90;;
51636;SDS011;37713;53.254;6.460;2023-06-14T12:00:27;4.18;;;1.70;;
51636;SDS011;37713;53.254;6.460;2023-06-14T12:02:54;6.20;;;2.70;;
51636;SDS011;37713;53.254;6.460;2023-06-14T12:05:21;4.97;;;2.00;;
51636;SDS011;37713;53.254;6.460;2023-06-14T12:07:47;6.20;;;1.80;;
51636;SDS011;37713;53.254;6.460;2023-06-14T12:10:14;5.47;;;1.80;;
51636;SDS011;37713;53.254;6.460;2023-06-14T12:12:40;3.78;;;1.80;;
51636;SDS011;37713;53.254;6.460;2023-06-14T12:15:07;5.93;;;1.80;;
51636;SDS011;37713;53.254;6.460;2023-06-14T12:17:36;3.67;;;1.70;;
51636;SDS011;37713;53.254;6.460;2023-06-14T12:20:09;7.25;;;2.10;;
51636;SDS011;37713;53.254;6.460;2023-06-14T12:25:03;6.63;;;1.88;;
51636;SDS011;37713;53.254;6.460;2023-06-14T12:27:30;3.78;;;1.63;;
51636;SDS011;37713;53.254;6.460;2023-06-14T12:30:00;9.05;;;1.70;;
51636;SDS011;37713;53.254;6.460;2023-06-14T12:32:27;4.82;;;1.80;;
51636;SDS011;37713;53.254;6.460;2023-06-14T12:34:54;4.68;;;1.90;;
51636;SDS011;37713;53.254;6.460;2023-06-14T12:37:19;7.15;;;1.90;;
51636;SDS011;37713;53.254;6.460;2023-06-14T12:39:45;3.63;;;1.67;;
51636;SDS011;37713;53.254;6.460;2023-06-14T12:42:11;4.10;;;1.70;;
51636;SDS011;37713;53.254;6.460;2023-06-14T12:44:39;4.07;;;1.67;;
51636;SDS011;37713;53.254;6.460;2023-06-14T12:47:06;3.45;;;1.58;;
51636;SDS011;37713;53.254;6.460;2023-06-14T12:49:32;4.40;;;1.60;;
51636;SDS011;37713;53.254;6.460;2023-06-14T12:51:58;7.03;;;1.80;;
51636;SDS011;37713;53.254;6.460;2023-06-14T12:54:24;5.45;;;1.60;;
51636;SDS011;37713;53.254;6.460;2023-06-14T12:56:53;4.50;;;1.50;;
51636;SDS011;37713;53.254;6.460;2023-06-14T12:59:20;3.08;;;1.48;;
51636;SDS011;37713;53.254;6.460;2023-06-14T13:01:46;6.35;;;1.58;;
51636;SDS011;37713;53.254;6.460;2023-06-14T13:04:14;4.18;;;1.70;;
51636;SDS011;37713;53.254;6.460;2023-06-14T13:06:40;3.28;;;1.50;;
51636;SDS011;37713;53.254;6.460;2023-06-14T13:09:06;3.53;;;1.60;;
51636;SDS011;37713;53.254;6.460;2023-06-14T13:11:33;5.38;;;1.35;;
51636;SDS011;37713;53.254;6.460;2023-06-14T13:13:59;4.25;;;1.70;;
51636;SDS011;37713;53.254;6.460;2023-06-14T13:16:24;6.78;;;1.80;;
51636;SDS011;37713;53.254;6.460;2023-06-14T13:18:52;2.95;;;1.67;;
51636;SDS011;37713;53.254;6.460;2023-06-14T13:21:18;4.43;;;1.52;;
51636;SDS011;37713;53.254;6.460;2023-06-14T13:23:44;3.85;;;1.73;;
51636;SDS011;37713;53.254;6.460;2023-06-14T13:26:10;6.18;;;1.80;;
51636;SDS011;37713;53.254;6.460;2023-06-14T13:28:35;3.60;;;2.00;;
51636;SDS011;37713;53.254;6.460;2023-06-14T13:31:01;5.55;;;1.75;;
51636;SDS011;37713;53.254;6.460;2023-06-14T13:33:27;3.95;;;1.90;;
51636;SDS011;37713;53.254;6.460;2023-06-14T13:35:53;4.30;;;2.00;;
51636;SDS011;37713;53.254;6.460;2023-06-14T13:38:18;3.92;;;1.58;;
51636;SDS011;37713;53.254;6.460;2023-06-14T13:40:44;3.58;;;1.73;;
51636;SDS011;37713;53.254;6.460;2023-06-14T13:43:10;4.78;;;1.50;;
51636;SDS011;37713;53.254;6.460;2023-06-14T13:45:36;5.85;;;1.85;;
51636;SDS011;37713;53.254;6.460;2023-06-14T13:48:02;3.63;;;1.60;;
51636;SDS011;37713;53.254;6.460;2023-06-14T13:50:28;9.15;;;2.35;;
51636;SDS011;37713;53.254;6.460;2023-06-14T13:52:57;4.00;;;1.70;;
51636;SDS011;37713;53.254;6.460;2023-06-14T13:55:23;3.47;;;1.42;;
51636;SDS011;37713;53.254;6.460;2023-06-14T13:57:48;5.53;;;1.70;;
51636;SDS011;37713;53.254;6.460;2023-06-14T14:00:14;5.40;;;2.00;;
51636;SDS011;37713;53.254;6.460;2023-06-14T14:02:40;4.82;;;1.83;;
51636;SDS011;37713;53.254;6.460;2023-06-14T14:05:06;6.22;;;1.80;;
51636;SDS011;37713;53.254;6.460;2023-06-14T14:07:33;4.00;;;1.85;;
51636;SDS011;37713;53.254;6.460;2023-06-14T14:09:59;4.13;;;1.60;;
51636;SDS011;37713;53.254;6.460;2023-06-14T14:12:25;3.85;;;1.58;;
51636;SDS011;37713;53.254;6.460;2023-06-14T14:14:51;5.43;;;2.08;;
51636;SDS011;37713;53.254;6.460;2023-06-14T14:17:17;4.47;;;1.75;;
51636;SDS011;37713;53.254;6.460;2023-06-14T14:19:43;4.82;;;1.50;;
51636;SDS011;37713;53.254;6.460;2023-06-14T14:22:09;4.32;;;1.80;;
51636;SDS011;37713;53.254;6.460;2023-06-14T14:24:34;5.47;;;1.77;;
51636;SDS011;37713;53.254;6.460;2023-06-14T14:27:00;5.18;;;1.83;;
51636;SDS011;37713;53.254;6.460;2023-06-14T14:29:26;5.57;;;2.25;;
51636;SDS011;37713;53.254;6.460;2023-06-14T14:31:55;5.07;;;2.05;;
51636;SDS011;37713;53.254;6.460;2023-06-14T14:34:22;6.55;;;1.95;;
51636;SDS011;37713;53.254;6.460;2023-06-14T14:36:49;4.38;;;1.55;;
51636;SDS011;37713;53.254;6.460;2023-06-14T14:39:14;4.53;;;2.00;;
51636;SDS011;37713;53.254;6.460;2023-06-14T14:41:40;4.10;;;2.00;;
51636;SDS011;37713;53.254;6.460;2023-06-14T14:44:06;5.68;;;2.00;;
51636;SDS011;37713;53.254;6.460;2023-06-14T14:46:32;3.70;;;1.70;;
51636;SDS011;37713;53.254;6.460;2023-06-14T14:48:58;4.47;;;1.88;;
51636;SDS011;37713;53.254;6.460;2023-06-14T14:51:25;6.10;;;2.10;;
51636;SDS011;37713;53.254;6.460;2023-06-14T14:53:51;4.28;;;2.00;;
51636;SDS011;37713;53.254;6.460;2023-06-14T14:56:16;5.13;;;2.05;;
51636;SDS011;37713;53.254;6.460;2023-06-14T14:58:42;6.05;;;2.17;;
51636;SDS011;37713;53.254;6.460;2023-06-14T15:01:09;4.43;;;2.10;;
51636;SDS011;37713;53.254;6.460;2023-06-14T15:03:35;3.30;;;1.80;;
51636;SDS011;37713;53.254;6.460;2023-06-14T15:06:01;5.43;;;2.40;;
51636;SDS011;37713;53.254;6.460;2023-06-14T15:08:27;7.40;;;2.58;;
51636;SDS011;37713;53.254;6.460;2023-06-14T15:10:52;6.35;;;2.80;;
51636;SDS011;37713;53.254;6.460;2023-06-14T15:13:18;6.07;;;2.88;;
51636;SDS011;37713;53.254;6.460;2023-06-14T15:15:45;6.65;;;3.00;;
51636;SDS011;37713;53.254;6.460;2023-06-14T15:18:10;8.00;;;2.83;;
51636;SDS011;37713;53.254;6.460;2023-06-14T15:20:36;6.95;;;2.80;;